Time;durP1;ratioP1;P1;durP2;ratioP2;P2;SDS_P1;SDS_P2;PMS_P1;PMS_P2;Temp;Humidity;BMP_temperature;BMP_pressure;BME280_temperature;BME280_humidity;BME280_pressure;Samples;Min_cycle;Max_cycle;Signal;HPM_P1;HPM_P2
2022/07/06 00:01:15;;;;;;;7.32;4.57;;;14.10;99.90;;;;;;5053038;28;20043;-62
2022/07/06 00:03:41;;;;;;;9.73;4.50;;;14.10;99.90;;;;;;5052620;28;20108;-62
2022/07/06 00:06:07;;;;;;;8.90;5.13;;;14.10;99.90;;;;;;5050969;28;20132;-62
2022/07/06 00:08:32;;;;;;;13.15;5.45;;;14.20;99.90;;;;;;5052413;28;20454;-62
2022/07/06 00:10:58;;;;;;;9.13;5.18;;;14.40;99.90;;;;;;5052075;28;20032;-62
2022/07/06 00:13:24;;;;;;;9.73;5.53;;;14.40;99.90;;;;;;5052061;28;20485;-62
2022/07/06 00:15:49;;;;;;;9.30;5.60;;;14.30;99.90;;;;;;5050675;28;20535;-62
2022/07/06 00:18:15;;;;;;;11.70;5.57;;;14.20;99.90;;;;;;5050920;28;20029;-62
2022/07/06 00:20:41;;;;;;;8.60;6.25;;;14.30;99.90;;;;;;5052287;28;20473;-62
2022/07/06 00:23:07;;;;;;;10.20;5.72;;;14.20;99.90;;;;;;5052159;28;20029;-62
2022/07/06 00:25:33;;;;;;;8.77;5.47;;;14.00;99.90;;;;;;5052311;28;20029;-62
2022/07/06 00:27:58;;;;;;;9.93;6.00;;;13.80;99.90;;;;;;5052462;28;20032;-62
2022/07/06 00:30:24;;;;;;;8.93;5.72;;;13.60;99.90;;;;;;5052007;28;20029;-62
2022/07/06 00:32:50;;;;;;;8.80;5.32;;;13.50;99.90;;;;;;5052035;28;20045;-62
2022/07/06 00:35:15;;;;;;;10.63;5.15;;;13.40;99.90;;;;;;5050564;28;20545;-62
2022/07/06 00:37:41;;;;;;;10.82;5.65;;;13.40;99.90;;;;;;5052034;28;20025;-62
2022/07/06 00:40:07;;;;;;;10.02;5.32;;;13.40;99.90;;;;;;5051747;28;20527;-62
2022/07/06 00:42:44;;;;;;;8.73;5.50;;;13.40;99.90;;;;;;5051955;28;20111;-63
2022/07/06 00:45:11;;;;;;;9.68;5.30;;;13.50;99.90;;;;;;5051495;28;20284;-63
2022/07/06 00:47:36;;;;;;;7.60;4.88;;;13.50;99.90;;;;;;5050310;28;20029;-63
2022/07/06 00:50:22;;;;;;;9.65;5.30;;;13.40;99.90;;;;;;5051703;28;20045;-63
2022/07/06 00:52:53;;;;;;;9.15;5.47;;;13.40;99.90;;;;;;5051432;28;20123;-63
2022/07/06 00:55:30;;;;;;;8.20;5.03;;;13.50;99.90;;;;;;5051675;28;20033;-63
2022/07/06 00:57:57;;;;;;;7.38;5.05;;;13.50;99.90;;;;;;5051937;28;20458;-63
2022/07/06 01:00:25;;;;;;;8.98;5.25;;;13.60;99.90;;;;;;5051317;28;20036;-63
2022/07/06 01:02:52;;;;;;;9.63;5.07;;;13.70;99.90;;;;;;5051326;28;20056;-62
2022/07/06 01:05:18;;;;;;;9.23;4.47;;;13.80;99.90;;;;;;5050135;28;20615;-62
2022/07/06 01:07:47;;;;;;;10.05;5.00;;;13.70;99.90;;;;;;5051650;28;20025;-62
2022/07/06 01:10:14;;;;;;;8.32;5.15;;;13.80;99.90;;;;;;5051797;28;20556;-62
2022/07/06 01:12:41;;;;;;;6.03;4.20;;;13.80;99.90;;;;;;5050048;28;20382;-62
2022/07/06 01:15:10;;;;;;;7.68;4.50;;;13.70;99.90;;;;;;5050439;28;20031;-63
2022/07/06 01:17:38;;;;;;;8.38;4.65;;;13.50;99.90;;;;;;5051562;28;20036;-63
2022/07/06 01:20:22;;;;;;;11.43;5.20;;;13.70;99.90;;;;;;5050049;28;20523;-63
2022/07/06 01:22:49;;;;;;;6.78;4.53;;;13.80;99.90;;;;;;5051065;28;20021;-63
2022/07/06 01:25:16;;;;;;;7.40;5.10;;;13.80;99.90;;;;;;5050077;28;20029;-63
2022/07/06 01:27:42;;;;;;;6.22;4.32;;;13.90;99.90;;;;;;5050042;28;20025;-63
2022/07/06 01:30:14;;;;;;;11.52;5.95;;;13.90;99.90;;;;;;5050774;28;20025;-63
2022/07/06 01:32:40;;;;;;;10.40;5.00;;;14.20;99.90;;;;;;5049720;28;20034;-63
2022/07/06 01:35:08;;;;;;;8.35;4.43;;;14.10;99.90;;;;;;5051025;28;20520;-63
2022/07/06 01:37:34;;;;;;;8.65;4.72;;;14.00;99.90;;;;;;5051201;28;20390;-63
2022/07/06 01:40:04;;;;;;;7.82;4.88;;;14.00;99.90;;;;;;5051609;28;20187;-63
2022/07/06 01:42:29;;;;;;;8.68;5.20;;;13.90;99.90;;;;;;5055207;28;20512;-63
2022/07/06 01:44:55;;;;;;;8.52;5.38;;;14.10;99.90;;;;;;5055052;28;20036;-62
2022/07/06 01:47:21;;;;;;;9.52;5.18;;;14.30;99.90;;;;;;5053687;28;20028;-63
2022/07/06 01:49:47;;;;;;;8.98;5.65;;;14.20;99.90;;;;;;5054939;28;20621;-62
2022/07/06 01:52:13;;;;;;;8.55;5.07;;;14.00;99.90;;;;;;5054927;28;20049;-62
2022/07/06 01:54:38;;;;;;;7.90;5.10;;;13.90;99.90;;;;;;5053666;28;20032;-62
2022/07/06 01:57:04;;;;;;;9.93;4.90;;;13.90;99.90;;;;;;5053824;28;20025;-62
2022/07/06 01:59:30;;;;;;;5.85;4.78;;;13.80;99.90;;;;;;5055108;28;20560;-62
2022/07/06 02:01:55;;;;;;;7.45;4.80;;;13.90;99.90;;;;;;5055134;28;20037;-63
2022/07/06 02:04:21;;;;;;;6.88;4.78;;;13.90;99.90;;;;;;5054918;28;20025;-62
2022/07/06 02:06:47;;;;;;;10.35;5.72;;;13.80;99.90;;;;;;5054984;28;20028;-62
2022/07/06 02:09:13;;;;;;;9.32;5.75;;;13.80;99.90;;;;;;5055345;28;20068;-62
2022/07/06 02:11:38;;;;;;;10.32;6.20;;;13.90;99.90;;;;;;5054654;28;20029;-62
2022/07/06 02:14:04;;;;;;;7.63;6.00;;;13.80;99.90;;;;;;5054710;28;20080;-62
2022/07/06 02:16:29;;;;;;;7.68;5.35;;;13.70;99.90;;;;;;5053517;28;20032;-63
2022/07/06 02:18:55;;;;;;;8.93;5.50;;;13.70;99.90;;;;;;5053856;28;20079;-63
2022/07/06 02:21:21;;;;;;;11.95;5.43;;;13.80;99.90;;;;;;5054611;28;20029;-62
2022/07/06 02:23:46;;;;;;;8.93;5.68;;;13.80;99.90;;;;;;5053523;28;20025;-63
2022/07/06 02:26:12;;;;;;;6.78;5.22;;;13.70;99.90;;;;;;5054576;28;20166;-62
2022/07/06 02:28:38;;;;;;;8.52;5.82;;;13.50;99.90;;;;;;5053279;28;20074;-63
2022/07/06 02:31:04;;;;;;;9.90;5.40;;;13.40;99.90;;;;;;5054376;28;20394;-63
2022/07/06 02:33:29;;;;;;;9.50;5.32;;;13.30;99.90;;;;;;5054419;28;20486;-62
2022/07/06 02:35:55;;;;;;;9.85;6.68;;;13.40;99.90;;;;;;5054738;28;20021;-62
2022/07/06 02:38:21;;;;;;;13.20;6.53;;;13.30;99.90;;;;;;5053187;28;20053;-62
2022/07/06 02:40:47;;;;;;;9.18;6.10;;;13.20;99.90;;;;;;5054035;28;20562;-62
2022/07/06 02:43:12;;;;;;;10.60;6.60;;;13.00;99.90;;;;;;5052992;28;20502;-62
2022/07/06 02:45:38;;;;;;;10.88;6.15;;;12.90;99.90;;;;;;5052950;28;20040;-62
2022/07/06 02:48:04;;;;;;;7.40;6.25;;;13.10;99.90;;;;;;5054607;28;20013;-62
2022/07/06 02:50:29;;;;;;;8.27;6.07;;;13.10;99.90;;;;;;5054320;28;20032;-63
2022/07/06 02:52:55;;;;;;;10.23;6.10;;;13.10;99.90;;;;;;5053297;28;20049;-62
2022/07/06 02:55:21;;;;;;;10.23;6.10;;;12.90;99.90;;;;;;5054141;28;20025;-62
2022/07/06 02:57:46;;;;;;;9.20;6.68;;;12.80;99.90;;;;;;5053184;28;20024;-62
2022/07/06 03:00:13;;;;;;;10.35;7.07;;;12.80;99.90;;;;;;5052713;28;20510;-62
2022/07/06 03:02:39;;;;;;;9.35;7.32;;;12.90;99.90;;;;;;5054067;28;20032;-62
2022/07/06 03:05:06;;;;;;;12.93;8.73;;;12.90;99.90;;;;;;5053600;28;20040;-62
2022/07/06 03:07:31;;;;;;;14.63;8.90;;;12.90;99.90;;;;;;5052532;28;20037;-62
2022/07/06 03:09:57;;;;;;;14.13;9.18;;;12.80;99.90;;;;;;5052788;28;20036;-62
2022/07/06 03:12:22;;;;;;;11.77;9.15;;;12.60;99.90;;;;;;5052578;28;20017;-62
2022/07/06 03:14:48;;;;;;;13.20;8.20;;;12.60;99.90;;;;;;5053873;28;20048;-61
2022/07/06 03:17:14;;;;;;;12.63;7.72;;;12.50;99.90;;;;;;5053502;28;20025;-62
2022/07/06 03:19:40;;;;;;;15.40;6.72;;;12.40;99.90;;;;;;5053877;28;20092;-62
2022/07/06 03:22:05;;;;;;;15.65;7.50;;;12.40;99.90;;;;;;5052394;28;20021;-62
2022/07/06 03:24:31;;;;;;;12.75;7.13;;;12.40;99.90;;;;;;5052312;28;20099;-62
2022/07/06 03:26:57;;;;;;;13.55;7.38;;;12.20;99.90;;;;;;5054019;28;20025;-62
2022/07/06 03:29:22;;;;;;;9.73;6.93;;;12.10;99.90;;;;;;5053643;28;20021;-62
2022/07/06 03:31:48;;;;;;;10.80;7.70;;;12.10;99.90;;;;;;5053220;28;20044;-62
2022/07/06 03:34:14;;;;;;;9.70;7.35;;;12.20;99.90;;;;;;5053985;28;20025;-62
2022/07/06 03:36:39;;;;;;;12.93;7.88;;;12.30;99.90;;;;;;5052130;28;20063;-62
2022/07/06 03:39:06;;;;;;;10.48;7.22;;;12.40;99.90;;;;;;5053722;28;20047;-62
2022/07/06 03:41:32;;;;;;;15.63;7.75;;;12.40;99.90;;;;;;5053501;28;20033;-62
2022/07/06 03:43:58;;;;;;;8.63;7.03;;;12.30;99.90;;;;;;5051932;28;20116;-62
2022/07/06 03:46:24;;;;;;;9.88;6.93;;;12.00;99.90;;;;;;5051549;28;20563;-62
2022/07/06 03:48:49;;;;;;;11.82;7.32;;;12.10;99.90;;;;;;5052955;28;20029;-62
2022/07/06 03:51:15;;;;;;;15.02;8.63;;;12.10;99.90;;;;;;5052374;28;20091;-62
2022/07/06 03:53:40;;;;;;;11.73;8.75;;;12.20;99.90;;;;;;5051393;28;20053;-62
2022/07/06 03:58:50;;;;;;;10.48;7.50;;;12.30;99.90;;;;;;5053419;28;20032;-62
2022/07/06 04:01:15;;;;;;;10.70;8.02;;;12.10;99.90;;;;;;5051053;28;20037;-61
2022/07/06 04:03:41;;;;;;;9.15;7.22;;;12.00;99.90;;;;;;5050806;28;20470;-61
2022/07/06 04:06:07;;;;;;;9.80;7.72;;;12.00;99.90;;;;;;5052269;28;20159;-62
2022/07/06 04:08:32;;;;;;;8.93;7.63;;;11.90;99.90;;;;;;5052905;28;20036;-61
2022/07/06 04:10:58;;;;;;;12.55;7.80;;;12.00;99.90;;;;;;5052382;28;20091;-62
2022/07/06 04:13:25;;;;;;;9.45;7.00;;;12.10;99.90;;;;;;5051054;28;20390;-62
2022/07/06 04:15:51;;;;;;;8.80;6.53;;;12.20;99.90;;;;;;5052159;28;20017;-61
2022/07/06 04:18:17;;;;;;;10.55;6.30;;;12.30;99.90;;;;;;5052427;28;20040;-61
2022/07/06 04:20:42;;;;;;;9.95;6.45;;;12.40;99.90;;;;;;5052247;28;20037;-62
2022/07/06 04:23:08;;;;;;;12.57;6.72;;;12.40;99.90;;;;;;5050789;28;20401;-62
2022/07/06 04:25:34;;;;;;;9.75;6.80;;;12.30;99.90;;;;;;5050893;28;20037;-62
2022/07/06 04:28:00;;;;;;;9.98;7.30;;;12.30;99.90;;;;;;5052355;28;20029;-62
2022/07/06 04:30:26;;;;;;;8.40;7.45;;;12.30;99.90;;;;;;5052150;28;20571;-62
2022/07/06 04:32:51;;;;;;;10.63;8.00;;;12.30;99.90;;;;;;5052112;28;20048;-62
2022/07/06 04:35:17;;;;;;;10.15;7.45;;;12.30;99.90;;;;;;5052405;28;20024;-61
2022/07/06 04:37:45;;;;;;;13.88;6.95;;;12.30;99.90;;;;;;5050958;28;20125;-62
2022/07/06 04:40:11;;;;;;;11.02;7.40;;;12.30;99.90;;;;;;5051949;28;20460;-62
2022/07/06 04:42:37;;;;;;;12.05;8.10;;;12.40;99.90;;;;;;5050731;28;20119;-62
2022/07/06 04:45:03;;;;;;;7.88;7.07;;;12.30;99.90;;;;;;5052050;28;20460;-61
2022/07/06 04:47:29;;;;;;;8.75;6.95;;;12.30;99.90;;;;;;5050688;28;20119;-61
2022/07/06 04:49:55;;;;;;;10.55;6.75;;;12.40;99.90;;;;;;5052072;28;20577;-61
2022/07/06 04:52:20;;;;;;;12.23;6.95;;;12.50;99.90;;;;;;5051701;28;20045;-61
2022/07/06 04:54:46;;;;;;;11.40;7.35;;;12.50;99.90;;;;;;5052071;28;20044;-61
2022/07/06 04:57:11;;;;;;;10.73;7.90;;;12.60;99.90;;;;;;5051827;28;20028;-61
2022/07/06 04:59:38;;;;;;;8.38;7.47;;;12.70;99.90;;;;;;5050909;28;20033;-61
2022/07/06 05:02:04;;;;;;;13.13;7.18;;;12.70;99.90;;;;;;5050460;28;20393;-61
2022/07/06 05:04:30;;;;;;;10.40;7.00;;;12.60;99.90;;;;;;5052028;28;20036;-61
2022/07/06 05:06:55;;;;;;;10.23;7.05;;;12.60;99.90;;;;;;5050245;28;20040;-61
2022/07/06 05:09:21;;;;;;;8.27;7.18;;;12.70;99.90;;;;;;5051592;28;20109;-61
2022/07/06 05:11:47;;;;;;;8.23;6.50;;;12.70;99.90;;;;;;5051387;28;20029;-61
2022/07/06 05:14:12;;;;;;;11.27;6.90;;;12.80;99.90;;;;;;5051294;28;20024;-61
2022/07/06 05:16:38;;;;;;;8.10;6.97;;;12.80;99.90;;;;;;5050707;28;20063;-61
2022/07/06 05:19:03;;;;;;;10.00;6.93;;;12.70;99.90;;;;;;5050613;28;20025;-61
2022/07/06 05:21:29;;;;;;;9.45;7.50;;;12.70;99.90;;;;;;5051026;28;20112;-62
2022/07/06 05:23:55;;;;;;;8.57;6.68;;;12.80;99.90;;;;;;5049962;28;20021;-62
2022/07/06 05:26:20;;;;;;;8.65;6.40;;;13.00;99.90;;;;;;5033689;28;20036;-61
2022/07/06 05:28:46;;;;;;;9.15;6.60;;;13.30;99.90;;;;;;5050429;28;20037;-61
2022/07/06 05:31:12;;;;;;;8.98;6.50;;;13.50;99.90;;;;;;5051369;28;20536;-62
2022/07/06 05:33:38;;;;;;;9.77;6.68;;;13.70;99.90;;;;;;5051557;28;20100;-62
2022/07/06 05:36:03;;;;;;;9.55;6.07;;;14.00;99.90;;;;;;5051100;28;20086;-63
2022/07/06 05:38:29;;;;;;;6.78;5.82;;;14.00;99.90;;;;;;5051430;28;20028;-62
2022/07/06 05:40:55;;;;;;;10.88;6.25;;;14.00;99.90;;;;;;5051273;28;20362;-63
2022/07/06 05:43:20;;;;;;;9.35;6.82;;;14.20;99.90;;;;;;5049581;28;20486;-61
2022/07/06 05:45:46;;;;;;;9.43;5.60;;;14.40;99.90;;;;;;5050610;28;20461;-61
2022/07/06 05:50:56;;;;;;;6.57;5.90;;;14.80;99.90;;;;;;5050615;28;20103;-61
2022/07/06 05:53:21;;;;;;;8.52;6.28;;;15.00;99.90;;;;;;5050693;28;20514;-61
2022/07/06 05:55:47;;;;;;;8.68;6.03;;;15.10;99.90;;;;;;5050399;28;20083;-61
2022/07/06 05:58:13;;;;;;;15.55;6.68;;;15.30;99.90;;;;;;5049493;28;20028;-61
2022/07/06 06:00:39;;;;;;;13.73;6.43;;;15.40;99.90;;;;;;5050406;28;20037;-61
2022/07/06 06:03:05;;;;;;;12.30;7.03;;;15.70;99.90;;;;;;5050965;28;20021;-61
2022/07/06 06:05:31;;;;;;;11.50;6.68;;;15.90;99.90;;;;;;5050593;28;20033;-61
2022/07/06 06:07:56;;;;;;;11.93;6.78;;;16.00;99.90;;;;;;5051069;28;20037;-62
2022/07/06 06:10:23;;;;;;;10.95;6.78;;;16.00;99.90;;;;;;5048899;28;20276;-61
2022/07/06 06:12:49;;;;;;;12.23;6.20;;;16.30;99.90;;;;;;5050518;28;20052;-61
2022/07/06 06:15:14;;;;;;;10.45;6.05;;;16.50;99.90;;;;;;5050402;28;20462;-61
2022/07/06 06:17:41;;;;;;;10.25;6.65;;;16.70;99.90;;;;;;5049097;28;20082;-61
2022/07/06 06:20:09;;;;;;;10.35;6.55;;;16.70;99.90;;;;;;5049056;28;20039;-61
2022/07/06 06:22:46;;;;;;;12.02;6.65;;;16.70;99.90;;;;;;5049104;28;20078;-61
2022/07/06 06:25:13;;;;;;;11.23;6.75;;;16.60;99.90;;;;;;5050329;28;20096;-61
2022/07/06 06:27:39;;;;;;;9.85;6.72;;;16.60;99.90;;;;;;5053487;28;20032;-61
2022/07/06 06:30:05;;;;;;;11.18;6.68;;;16.50;99.90;;;;;;5052582;28;20025;-61
2022/07/06 06:32:31;;;;;;;7.93;6.30;;;16.60;99.90;;;;;;5057936;28;20401;-61
2022/07/06 06:34:56;;;;;;;16.35;6.45;;;16.60;99.90;;;;;;5071877;28;20029;-61
2022/07/06 06:37:22;;;;;;;10.00;6.72;;;16.70;99.90;;;;;;5063158;28;20021;-61
2022/07/06 06:39:47;;;;;;;10.65;6.60;;;16.70;99.90;;;;;;5053858;28;20025;-61
2022/07/06 06:42:13;;;;;;;10.85;6.45;;;16.90;99.90;;;;;;5069842;28;20374;-61
2022/07/06 06:44:38;;;;;;;7.93;5.68;;;17.20;99.90;;;;;;5072589;28;20052;-61
2022/07/06 06:47:04;;;;;;;13.88;6.03;;;17.60;99.90;;;;;;5069531;28;20488;-61
2022/07/06 06:49:30;;;;;;;8.20;5.60;;;18.10;99.90;;;;;;5072998;28;20024;-61
2022/07/06 06:51:55;;;;;;;8.73;5.22;;;18.70;99.90;;;;;;5065008;28;20775;-61
2022/07/06 06:54:21;;;;;;;7.55;5.15;;;19.30;99.90;;;;;;5054393;28;20103;-61
2022/07/06 06:56:47;;;;;;;8.05;4.90;;;19.30;99.90;;;;;;5064226;28;20028;-61
2022/07/06 06:59:12;;;;;;;9.55;5.05;;;19.60;99.90;;;;;;5070685;28;20032;-61
2022/07/06 07:01:38;;;;;;;6.75;4.18;;;19.40;99.90;;;;;;5072583;28;20028;-61
2022/07/06 07:04:04;;;;;;;7.78;4.38;;;19.50;99.90;;;;;;5064034;28;20103;-61
2022/07/06 07:06:29;;;;;;;6.53;5.20;;;20.00;99.90;;;;;;5067723;28;20024;-61
2022/07/06 07:08:55;;;;;;;8.50;4.40;;;20.20;99.90;;;;;;5072254;28;20108;-63
2022/07/06 07:11:21;;;;;;;8.23;4.75;;;20.30;99.90;;;;;;5070617;28;20028;-63
2022/07/06 07:13:47;;;;;;;16.45;4.90;;;20.00;99.90;;;;;;5066862;28;20035;-63
2022/07/06 07:16:12;;;;;;;6.82;3.90;;;20.40;99.90;;;;;;5068651;28;20443;-63
2022/07/06 07:18:38;;;;;;;8.32;3.63;;;20.90;99.90;;;;;;5067334;28;20029;-63
2022/07/06 07:21:04;;;;;;;6.03;3.90;;;21.40;99.90;;;;;;5069015;28;20115;-63
2022/07/06 07:23:30;;;;;;;5.90;3.50;;;22.20;99.90;;;;;;5062741;28;20029;-63
2022/07/06 07:25:55;;;;;;;6.60;3.65;;;23.10;99.90;;;;;;5061807;28;20036;-63
2022/07/06 07:28:21;;;;;;;5.35;2.67;;;22.90;99.90;;;;;;5068532;28;20039;-63
2022/07/06 07:30:47;;;;;;;6.07;3.20;;;22.90;99.90;;;;;;5065614;28;20029;-63
2022/07/06 07:33:12;;;;;;;5.30;3.05;;;22.50;99.90;;;;;;5068211;28;20463;-63
2022/07/06 07:35:39;;;;;;;4.88;2.80;;;22.30;99.90;;;;;;5060336;28;20484;-62
2022/07/06 07:38:04;;;;;;;4.78;2.90;;;22.00;99.90;;;;;;5067335;28;20056;-62
2022/07/06 07:40:30;;;;;;;6.97;3.15;;;22.30;99.90;;;;;;5070582;28;20067;-62
2022/07/06 07:42:56;;;;;;;5.68;2.70;;;22.60;99.90;;;;;;5060306;28;20098;-63
2022/07/06 07:45:21;;;;;;;6.80;2.42;;;22.20;99.90;;;;;;5069283;28;20556;-63
2022/07/06 07:47:47;;;;;;;5.43;2.30;;;23.10;99.90;;;;;;5066750;28;20024;-63
2022/07/06 07:50:13;;;;;;;6.00;2.33;;;24.00;97.90;;;;;;5071626;28;20352;-63
2022/07/06 07:52:38;;;;;;;4.43;1.95;;;24.60;96.50;;;;;;5069657;28;20051;-63
2022/07/06 07:55:05;;;;;;;7.45;2.58;;;24.90;95.00;;;;;;5068984;28;20396;-63
2022/07/06 07:57:30;;;;;;;6.50;2.30;;;25.50;94.00;;;;;;5063911;28;20832;-63
2022/07/06 07:59:56;;;;;;;4.88;2.58;;;25.70;93.60;;;;;;5066942;28;20115;-62
2022/07/06 08:02:21;;;;;;;3.90;2.28;;;26.20;92.70;;;;;;5067705;28;20039;-64
2022/07/06 08:04:47;;;;;;;5.78;2.20;;;24.90;93.90;;;;;;5071947;28;20060;-62
2022/07/06 08:07:13;;;;;;;5.25;2.05;;;24.10;96.00;;;;;;5066074;28;20028;-62
2022/07/06 08:09:39;;;;;;;6.82;2.25;;;23.80;96.20;;;;;;5062758;28;20045;-62
2022/07/06 08:12:04;;;;;;;5.25;2.20;;;24.10;95.30;;;;;;5066923;28;20135;-62
2022/07/06 08:14:31;;;;;;;4.82;2.15;;;23.40;96.10;;;;;;5067633;28;20056;-62
2022/07/06 08:16:57;;;;;;;4.88;2.20;;;23.20;96.10;;;;;;5065285;28;20020;-62
2022/07/06 08:19:23;;;;;;;2.85;2.00;;;24.00;95.70;;;;;;5063161;28;20027;-62
2022/07/06 08:21:48;;;;;;;7.15;2.22;;;25.10;93.20;;;;;;5059579;28;20405;-62
2022/07/06 08:24:14;;;;;;;4.82;1.80;;;25.60;91.00;;;;;;5058544;28;20063;-62
2022/07/06 08:26:40;;;;;;;4.45;2.08;;;25.90;91.00;;;;;;5062812;28;20086;-62
2022/07/06 08:29:06;;;;;;;6.95;2.00;;;25.80;90.80;;;;;;5068768;28;20388;-62
2022/07/06 08:31:33;;;;;;;4.18;2.13;;;25.60;90.40;;;;;;5065458;28;20024;-62
2022/07/06 08:33:59;;;;;;;5.40;2.13;;;25.60;90.30;;;;;;5067486;28;20103;-62
2022/07/06 08:36:25;;;;;;;5.47;2.70;;;25.20;90.40;;;;;;5067695;28;20120;-64
2022/07/06 08:38:50;;;;;;;4.75;2.30;;;24.80;91.20;;;;;;5062609;28;20501;-62
2022/07/06 08:41:17;;;;;;;6.60;2.00;;;25.30;90.70;;;;;;5060340;28;20038;-62
2022/07/06 08:43:43;;;;;;;6.40;2.30;;;26.00;90.00;;;;;;5063736;28;20040;-62
2022/07/06 08:46:08;;;;;;;6.35;2.20;;;26.50;89.90;;;;;;5062424;28;20040;-63
2022/07/06 08:48:36;;;;;;;5.68;2.00;;;27.30;87.20;;;;;;5064786;28;20027;-64
2022/07/06 08:51:04;;;;;;;4.65;2.15;;;27.30;85.80;;;;;;5067364;28;20223;-63
2022/07/06 08:53:30;;;;;;;5.72;2.50;;;27.20;86.30;;;;;;5062673;28;20452;-63
2022/07/06 08:55:56;;;;;;;5.28;2.75;;;26.20;89.90;;;;;;5066225;28;20028;-63
2022/07/06 08:58:27;;;;;;;6.45;2.80;;;26.10;90.40;;;;;;5063859;28;20394;-63
2022/07/06 09:00:57;;;;;;;5.30;2.83;;;25.50;91.20;;;;;;5058437;28;20025;-64
2022/07/06 09:03:24;;;;;;;6.50;2.38;;;24.60;91.80;;;;;;5065675;28;20428;-64
2022/07/06 09:05:51;;;;;;;5.07;2.72;;;23.50;94.20;;;;;;5065711;28;20029;-64
2022/07/06 09:08:18;;;;;;;6.03;3.08;;;23.20;94.40;;;;;;5065449;28;20028;-63
2022/07/06 09:10:44;;;;;;;6.50;3.15;;;22.80;95.00;;;;;;5067071;28;20033;-62
2022/07/06 09:13:09;;;;;;;8.75;3.17;;;22.50;95.60;;;;;;5064397;28;20024;-62
2022/07/06 09:15:39;;;;;;;3.22;2.35;;;22.20;96.20;;;;;;5062516;28;20080;-63
2022/07/06 09:18:04;;;;;;;6.25;2.92;;;22.10;97.60;;;;;;5064482;28;20497;-63
2022/07/06 09:20:31;;;;;;;4.40;2.83;;;22.10;97.00;;;;;;5065459;28;20112;-64
2022/07/06 09:23:02;;;;;;;8.43;3.08;;;21.90;97.60;;;;;;5066808;28;20154;-64
2022/07/06 09:25:28;;;;;;;6.85;3.15;;;22.00;97.70;;;;;;5061219;28;20041;-64
2022/07/06 09:27:56;;;;;;;5.43;2.78;;;21.70;97.90;;;;;;5060699;28;20772;-64
2022/07/06 09:30:22;;;;;;;5.50;2.47;;;21.60;98.90;;;;;;5064035;28;20111;-64
2022/07/06 09:32:53;;;;;;;6.40;2.75;;;21.70;99.10;;;;;;5063678;28;20036;-64
2022/07/06 09:35:28;;;;;;;9.20;3.15;;;22.00;97.90;;;;;;5061664;28;20020;-64
2022/07/06 09:38:07;;;;;;;12.95;2.95;;;22.10;97.60;;;;;;5066108;28;20508;-64
2022/07/06 09:40:37;;;;;;;11.30;3.30;;;22.10;98.30;;;;;;5065214;28;20051;-63
2022/07/06 09:43:16;;;;;;;4.95;2.72;;;22.20;97.80;;;;;;5066551;28;20027;-64
2022/07/06 09:45:44;;;;;;;5.45;2.70;;;22.70;97.10;;;;;;5068006;28;21325;-64
2022/07/06 09:48:21;;;;;;;4.50;2.80;;;23.10;96.50;;;;;;5064569;28;20032;-65
2022/07/06 09:50:53;;;;;;;5.68;2.40;;;23.30;96.10;;;;;;5067485;28;20036;-65
2022/07/06 09:53:20;;;;;;;6.75;2.78;;;23.60;95.00;;;;;;5062816;28;20416;-65
2022/07/06 09:55:48;;;;;;;6.22;2.58;;;23.60;95.00;;;;;;5063257;28;20489;-66
2022/07/06 09:58:15;;;;;;;6.97;2.80;;;23.80;94.80;;;;;;5069519;28;20016;-63
2022/07/06 10:00:41;;;;;;;4.88;2.28;;;23.70;94.40;;;;;;5069416;28;20025;-64
2022/07/06 10:03:08;;;;;;;7.72;2.33;;;23.80;94.80;;;;;;5073578;28;20025;-64
2022/07/06 10:05:40;;;;;;;6.30;2.63;;;24.20;94.00;;;;;;5097457;28;20016;-65
2022/07/06 10:08:09;;;;;;;;;;;24.10;94.60;;;;;;5092353;28;20112;-64
2022/07/06 10:10:36;;;;;;;7.25;2.65;;;23.80;94.50;;;;;;5077605;28;19963;-64
2022/07/06 10:13:03;;;;;;;5.75;2.80;;;23.50;95.20;;;;;;5068599;28;20492;-64
2022/07/06 10:15:33;;;;;;;6.13;2.60;;;23.30;95.90;;;;;;5072646;28;20473;-63
2022/07/06 10:18:03;;;;;;;4.03;2.53;;;23.00;96.60;;;;;;5062036;28;20036;-64
2022/07/06 10:20:36;;;;;;;7.05;2.65;;;23.00;96.30;;;;;;5061902;28;20033;-64
2022/07/06 10:23:03;;;;;;;5.53;2.53;;;23.00;95.90;;;;;;5065322;28;20025;-64
2022/07/06 10:25:29;;;;;;;6.32;2.42;;;23.00;96.20;;;;;;5061467;28;20397;-64
2022/07/06 10:27:55;;;;;;;4.43;2.53;;;22.90;96.80;;;;;;5065425;28;20420;-64
2022/07/06 10:30:22;;;;;;;4.28;2.42;;;22.80;96.70;;;;;;5069199;28;20040;-64
2022/07/06 10:32:50;;;;;;;5.55;2.58;;;22.80;96.20;;;;;;5054313;28;20096;-64
2022/07/06 10:35:18;;;;;;;4.40;2.88;;;22.90;95.70;;;;;;5068574;28;20028;-64
2022/07/06 10:37:44;;;;;;;6.25;2.55;;;22.80;96.10;;;;;;5070925;28;20027;-64
2022/07/06 10:42:59;;;;;;;7.57;3.28;;;23.60;95.90;;;;;;5054328;28;20079;-64
2022/07/06 10:45:27;;;;;;;4.97;2.88;;;24.80;93.20;;;;;;5054112;28;20037;-64
2022/07/06 10:48:22;;;;;;;8.20;2.65;;;25.10;93.70;;;;;;5064807;28;20044;-65
2022/07/06 10:50:48;;;;;;;4.85;2.55;;;25.80;92.30;;;;;;5062237;28;20025;-65
2022/07/06 10:53:28;;;;;;;5.40;2.63;;;26.00;91.00;;;;;;5056197;28;20123;-65
2022/07/06 10:55:55;;;;;;;5.20;2.28;;;26.20;91.00;;;;;;5056427;28;20469;-65
2022/07/06 10:58:51;;;;;;;7.82;2.10;;;25.80;90.20;;;;;;5054028;28;20033;-65
2022/07/06 11:01:18;;;;;;;6.10;2.30;;;25.50;90.70;;;;;;5065092;28;20517;-65
2022/07/06 11:04:08;;;;;;;5.55;2.85;;;26.00;90.60;;;;;;5073153;28;20020;-65
2022/07/06 11:06:37;;;;;;;5.35;2.85;;;25.30;91.60;;;;;;5065197;28;20032;-65
2022/07/06 11:09:10;;;;;;;6.80;2.85;;;24.70;92.10;;;;;;5058947;28;20107;-65
2022/07/06 11:11:35;;;;;;;7.32;2.72;;;26.00;91.40;;;;;;5073367;28;20107;-65
2022/07/06 11:14:04;;;;;;;6.05;3.35;;;25.50;91.40;;;;;;5072072;28;20100;-65
2022/07/06 11:16:46;;;;;;;10.60;3.30;;;24.80;92.20;;;;;;5073288;28;20081;-65
2022/07/06 11:19:17;;;;;;;9.60;3.72;;;24.50;93.60;;;;;;5072437;28;20028;-62
2022/07/06 11:21:57;;;;;;;7.20;3.15;;;24.40;93.00;;;;;;5073039;28;20107;-62
2022/07/06 11:24:28;;;;;;;4.80;3.10;;;25.50;93.10;;;;;;5073139;28;20083;-62
2022/07/06 11:26:55;;;;;;;8.50;3.67;;;25.90;91.60;;;;;;5073001;28;20031;-64
2022/07/06 11:29:23;;;;;;;8.57;3.13;;;25.20;92.40;;;;;;5060990;28;20484;-65
2022/07/06 11:31:52;;;;;;;4.20;2.22;;;25.70;92.50;;;;;;5062079;28;20115;-65
2022/07/06 11:34:20;;;;;;;7.55;2.63;;;26.80;90.10;;;;;;5072634;28;20077;-65
2022/07/06 11:36:47;;;;;;;4.57;2.60;;;27.50;85.00;;;;;;5070080;28;20111;-65
2022/07/06 11:39:14;;;;;;;4.07;2.45;;;26.30;87.60;;;;;;5058694;28;20507;-65
2022/07/06 11:41:40;;;;;;;5.43;2.10;;;25.50;90.10;;;;;;5066177;28;20428;-65
2022/07/06 11:44:05;;;;;;;4.65;2.70;;;24.80;91.10;;;;;;5069707;28;20039;-65
2022/07/06 11:46:34;;;;;;;5.40;2.67;;;24.40;91.60;;;;;;5068024;28;20461;-63
2022/07/06 11:49:02;;;;;;;6.85;2.40;;;24.20;93.00;;;;;;5052252;28;20033;-62
2022/07/06 11:51:30;;;;;;;6.38;2.55;;;24.40;92.50;;;;;;5062695;28;20082;-64
2022/07/06 11:54:01;;;;;;;11.45;2.65;;;24.70;92.00;;;;;;5070726;28;20031;-63
2022/07/06 11:56:28;;;;;;;6.13;2.25;;;24.50;92.10;;;;;;5071385;28;20063;-63
2022/07/06 11:58:56;;;;;;;6.53;2.30;;;24.50;92.60;;;;;;5062189;28;20113;-63
2022/07/06 12:01:23;;;;;;;7.53;2.55;;;24.70;92.30;;;;;;5052553;28;20490;-64
2022/07/06 12:03:50;;;;;;;6.35;3.00;;;25.30;92.50;;;;;;5063964;28;20039;-63
2022/07/06 12:06:21;;;;;;;8.77;3.28;;;25.20;91.00;;;;;;5072079;28;20024;-63
2022/07/06 12:08:49;;;;;;;6.10;2.50;;;26.10;91.00;;;;;;5072598;28;20459;-63
2022/07/06 12:11:26;;;;;;;7.07;2.83;;;26.50;90.20;;;;;;5072343;28;20040;-63
2022/07/06 12:13:54;;;;;;;7.10;3.00;;;27.00;88.30;;;;;;5052189;28;20025;-63
2022/07/06 12:16:23;;;;;;;5.60;2.70;;;26.20;89.60;;;;;;5053125;28;20036;-63
2022/07/06 12:18:51;;;;;;;5.47;2.50;;;25.80;90.50;;;;;;5064007;28;20024;-63
2022/07/06 12:21:22;;;;;;;5.45;2.42;;;27.00;88.90;;;;;;5059305;28;20040;-63
2022/07/06 12:23:52;;;;;;;4.18;2.08;;;26.30;87.50;;;;;;5055155;28;20087;-63
2022/07/06 12:26:24;;;;;;;6.10;2.30;;;25.50;90.50;;;;;;5065231;28;20036;-63
2022/07/06 12:29:13;;;;;;;6.32;2.30;;;26.60;87.40;;;;;;5052274;28;20029;-63
2022/07/06 12:31:59;;;;;;;4.13;1.77;;;28.40;83.40;;;;;;5064815;28;20471;-63
2022/07/06 12:34:27;;;;;;;2.53;1.88;;;28.80;80.70;;;;;;5070791;28;20024;-63
2022/07/06 12:36:53;;;;;;;3.22;1.95;;;27.80;81.00;;;;;;5071699;28;20013;-63
2022/07/06 12:39:21;;;;;;;8.23;2.13;;;26.40;84.40;;;;;;5067434;28;20449;-65
2022/07/06 12:42:06;;;;;;;4.80;1.98;;;26.20;85.30;;;;;;5050703;28;20055;-65
2022/07/06 12:44:32;;;;;;;5.80;1.80;;;26.30;84.70;;;;;;5066807;28;20082;-65
2022/07/06 12:47:09;;;;;;;2.88;1.52;;;26.20;85.80;;;;;;5057815;28;20393;-63
2022/07/06 12:49:37;;;;;;;5.47;1.80;;;26.80;86.80;;;;;;5068724;28;20033;-64
2022/07/06 12:52:12;;;;;;;3.38;2.28;;;26.90;87.80;;;;;;5051839;28;20098;-64
2022/07/06 12:54:53;;;;;;;4.78;2.17;;;25.80;87.70;;;;;;5066081;28;20313;-64